sensor_id;sensor_type;location;lat;lon;timestamp;temperature;humidity
29663;DHT22;16578;53.266;7.920;2023-05-24T00:01:50;12.00;69.20
29663;DHT22;16578;53.266;7.920;2023-05-24T00:04:15;12.00;69.20
29663;DHT22;16578;53.266;7.920;2023-05-24T00:06:43;11.90;69.20
29663;DHT22;16578;53.266;7.920;2023-05-24T00:09:09;11.90;69.30
29663;DHT22;16578;53.266;7.920;2023-05-24T00:11:35;11.90;69.50
29663;DHT22;16578;53.266;7.920;2023-05-24T00:14:01;11.90;69.90
29663;DHT22;16578;53.266;7.920;2023-05-24T00:16:26;11.90;69.70
29663;DHT22;16578;53.266;7.920;2023-05-24T00:18:52;11.90;70.00
29663;DHT22;16578;53.266;7.920;2023-05-24T00:21:19;11.90;70.10
29663;DHT22;16578;53.266;7.920;2023-05-24T00:23:44;11.90;70.30
29663;DHT22;16578;53.266;7.920;2023-05-24T00:26:10;11.90;70.40
29663;DHT22;16578;53.266;7.920;2023-05-24T00:28:36;11.90;71.40
29663;DHT22;16578;53.266;7.920;2023-05-24T00:31:01;11.90;70.60
29663;DHT22;16578;53.266;7.920;2023-05-24T00:33:27;11.90;70.50
29663;DHT22;16578;53.266;7.920;2023-05-24T00:35:54;11.90;70.60
29663;DHT22;16578;53.266;7.920;2023-05-24T00:38:26;12.00;70.60
29663;DHT22;16578;53.266;7.920;2023-05-24T00:40:53;12.00;70.60
29663;DHT22;16578;53.266;7.920;2023-05-24T00:43:20;12.00;70.60
29663;DHT22;16578;53.266;7.920;2023-05-24T00:45:46;12.00;70.50
29663;DHT22;16578;53.266;7.920;2023-05-24T00:48:12;12.10;70.50
29663;DHT22;16578;53.266;7.920;2023-05-24T00:50:38;12.10;70.50
29663;DHT22;16578;53.266;7.920;2023-05-24T00:53:05;12.10;70.40
29663;DHT22;16578;53.266;7.920;2023-05-24T00:55:33;12.10;70.50
29663;DHT22;16578;53.266;7.920;2023-05-24T00:58:00;12.10;70.60
29663;DHT22;16578;53.266;7.920;2023-05-24T01:00:26;12.10;70.70
29663;DHT22;16578;53.266;7.920;2023-05-24T01:02:53;12.10;70.70
29663;DHT22;16578;53.266;7.920;2023-05-24T01:05:19;12.10;70.70
29663;DHT22;16578;53.266;7.920;2023-05-24T01:10:42;12.20;71.10
29663;DHT22;16578;53.266;7.920;2023-05-24T01:13:30;12.10;70.80
29663;DHT22;16578;53.266;7.920;2023-05-24T01:16:21;12.10;70.70
29663;DHT22;16578;53.266;7.920;2023-05-24T01:19:04;12.20;71.10
29663;DHT22;16578;53.266;7.920;2023-05-24T01:27:03;12.20;70.90
29663;DHT22;16578;53.266;7.920;2023-05-24T01:29:30;12.20;70.90
29663;DHT22;16578;53.266;7.920;2023-05-24T01:31:57;12.10;70.90
29663;DHT22;16578;53.266;7.920;2023-05-24T01:34:24;12.20;71.00
29663;DHT22;16578;53.266;7.920;2023-05-24T01:36:50;12.20;71.10
29663;DHT22;16578;53.266;7.920;2023-05-24T01:39:15;12.20;71.10
29663;DHT22;16578;53.266;7.920;2023-05-24T01:41:51;12.20;71.20
29663;DHT22;16578;53.266;7.920;2023-05-24T01:44:37;12.20;71.40
29663;DHT22;16578;53.266;7.920;2023-05-24T01:49:41;12.30;71.30
29663;DHT22;16578;53.266;7.920;2023-05-24T01:52:11;12.30;71.30
29663;DHT22;16578;53.266;7.920;2023-05-24T01:54:43;12.30;71.30
29663;DHT22;16578;53.266;7.920;2023-05-24T01:57:10;12.30;71.20
29663;DHT22;16578;53.266;7.920;2023-05-24T01:59:38;12.30;71.20
29663;DHT22;16578;53.266;7.920;2023-05-24T02:02:04;12.30;71.40
29663;DHT22;16578;53.266;7.920;2023-05-24T02:04:30;12.20;71.40
29663;DHT22;16578;53.266;7.920;2023-05-24T02:06:55;12.30;71.30
29663;DHT22;16578;53.266;7.920;2023-05-24T02:09:21;12.30;71.30
29663;DHT22;16578;53.266;7.920;2023-05-24T02:11:47;12.30;71.40
29663;DHT22;16578;53.266;7.920;2023-05-24T02:14:12;12.30;71.50
29663;DHT22;16578;53.266;7.920;2023-05-24T02:16:38;12.30;71.50
29663;DHT22;16578;53.266;7.920;2023-05-24T02:19:07;12.30;71.30
29663;DHT22;16578;53.266;7.920;2023-05-24T02:21:33;12.40;71.30
29663;DHT22;16578;53.266;7.920;2023-05-24T02:23:59;12.40;71.20
29663;DHT22;16578;53.266;7.920;2023-05-24T02:26:24;12.40;71.20
29663;DHT22;16578;53.266;7.920;2023-05-24T02:28:50;12.40;71.40
29663;DHT22;16578;53.266;7.920;2023-05-24T02:31:16;12.40;71.40
29663;DHT22;16578;53.266;7.920;2023-05-24T02:33:42;12.40;71.30
29663;DHT22;16578;53.266;7.920;2023-05-24T02:36:08;12.40;71.30
29663;DHT22;16578;53.266;7.920;2023-05-24T02:38:33;12.40;71.20
29663;DHT22;16578;53.266;7.920;2023-05-24T02:40:59;12.40;71.30
29663;DHT22;16578;53.266;7.920;2023-05-24T02:43:24;12.30;71.30
29663;DHT22;16578;53.266;7.920;2023-05-24T02:45:50;12.40;71.40
29663;DHT22;16578;53.266;7.920;2023-05-24T02:48:15;12.30;71.40
29663;DHT22;16578;53.266;7.920;2023-05-24T02:50:41;12.30;71.40
29663;DHT22;16578;53.266;7.920;2023-05-24T02:53:06;12.30;71.50
29663;DHT22;16578;53.266;7.920;2023-05-24T02:55:33;12.30;71.50
29663;DHT22;16578;53.266;7.920;2023-05-24T02:57:58;12.30;71.50
29663;DHT22;16578;53.266;7.920;2023-05-24T03:00:24;12.40;71.50
29663;DHT22;16578;53.266;7.920;2023-05-24T03:02:50;12.40;71.40
29663;DHT22;16578;53.266;7.920;2023-05-24T03:05:16;12.30;71.40
29663;DHT22;16578;53.266;7.920;2023-05-24T03:07:42;12.30;71.50
29663;DHT22;16578;53.266;7.920;2023-05-24T03:10:08;12.30;71.40
29663;DHT22;16578;53.266;7.920;2023-05-24T03:12:33;12.40;71.40
29663;DHT22;16578;53.266;7.920;2023-05-24T03:14:59;12.30;71.40
29663;DHT22;16578;53.266;7.920;2023-05-24T03:17:25;12.30;71.50
29663;DHT22;16578;53.266;7.920;2023-05-24T03:19:51;12.30;71.60
29663;DHT22;16578;53.266;7.920;2023-05-24T03:22:17;12.30;71.60
29663;DHT22;16578;53.266;7.920;2023-05-24T03:24:43;12.30;71.70
29663;DHT22;16578;53.266;7.920;2023-05-24T03:27:10;12.40;71.70
29663;DHT22;16578;53.266;7.920;2023-05-24T03:29:36;12.40;71.80
29663;DHT22;16578;53.266;7.920;2023-05-24T03:32:02;12.30;71.70
29663;DHT22;16578;53.266;7.920;2023-05-24T03:34:27;12.40;71.80
29663;DHT22;16578;53.266;7.920;2023-05-24T03:36:53;12.40;71.70
29663;DHT22;16578;53.266;7.920;2023-05-24T03:39:18;12.40;71.60
29663;DHT22;16578;53.266;7.920;2023-05-24T03:41:44;12.40;71.60
29663;DHT22;16578;53.266;7.920;2023-05-24T03:44:09;12.40;71.70
29663;DHT22;16578;53.266;7.920;2023-05-24T03:46:35;12.40;72.60
29663;DHT22;16578;53.266;7.920;2023-05-24T03:49:00;12.40;71.70
29663;DHT22;16578;53.266;7.920;2023-05-24T03:51:26;12.40;71.70
29663;DHT22;16578;53.266;7.920;2023-05-24T03:53:57;12.40;71.80
29663;DHT22;16578;53.266;7.920;2023-05-24T03:56:23;12.40;71.70
29663;DHT22;16578;53.266;7.920;2023-05-24T03:58:49;12.30;71.80
29663;DHT22;16578;53.266;7.920;2023-05-24T04:01:16;12.40;71.90
29663;DHT22;16578;53.266;7.920;2023-05-24T04:03:42;12.30;71.90
29663;DHT22;16578;53.266;7.920;2023-05-24T04:06:10;12.30;71.90
29663;DHT22;16578;53.266;7.920;2023-05-24T04:08:36;12.40;72.10
29663;DHT22;16578;53.266;7.920;2023-05-24T04:11:01;12.40;72.10
29663;DHT22;16578;53.266;7.920;2023-05-24T04:13:27;12.40;72.20
29663;DHT22;16578;53.266;7.920;2023-05-24T04:15:53;12.30;72.30
29663;DHT22;16578;53.266;7.920;2023-05-24T04:18:18;12.40;73.30
29663;DHT22;16578;53.266;7.920;2023-05-24T04:20:44;12.40;72.40
29663;DHT22;16578;53.266;7.920;2023-05-24T04:23:09;12.40;72.40
29663;DHT22;16578;53.266;7.920;2023-05-24T04:25:35;12.40;72.60
29663;DHT22;16578;53.266;7.920;2023-05-24T04:28:00;12.50;72.60
29663;DHT22;16578;53.266;7.920;2023-05-24T04:30:28;12.50;72.70
29663;DHT22;16578;53.266;7.920;2023-05-24T04:32:57;12.50;72.70
29663;DHT22;16578;53.266;7.920;2023-05-24T04:35:24;12.60;72.70
29663;DHT22;16578;53.266;7.920;2023-05-24T04:37:50;12.60;72.70
29663;DHT22;16578;53.266;7.920;2023-05-24T04:40:16;12.70;72.70
29663;DHT22;16578;53.266;7.920;2023-05-24T04:42:41;12.70;72.60
29663;DHT22;16578;53.266;7.920;2023-05-24T04:45:07;12.70;72.60
29663;DHT22;16578;53.266;7.920;2023-05-24T04:47:33;12.80;72.70
29663;DHT22;16578;53.266;7.920;2023-05-24T04:49:59;12.80;72.60
29663;DHT22;16578;53.266;7.920;2023-05-24T04:52:24;12.90;72.60
29663;DHT22;16578;53.266;7.920;2023-05-24T04:54:50;12.90;72.50
29663;DHT22;16578;53.266;7.920;2023-05-24T04:57:16;12.90;72.50
29663;DHT22;16578;53.266;7.920;2023-05-24T04:59:42;13.00;72.50
29663;DHT22;16578;53.266;7.920;2023-05-24T05:02:08;13.00;72.50
29663;DHT22;16578;53.266;7.920;2023-05-24T05:04:33;13.10;72.50
29663;DHT22;16578;53.266;7.920;2023-05-24T05:06:59;13.10;72.50
29663;DHT22;16578;53.266;7.920;2023-05-24T05:09:24;13.20;72.50
29663;DHT22;16578;53.266;7.920;2023-05-24T05:11:50;13.20;72.40
29663;DHT22;16578;53.266;7.920;2023-05-24T05:14:16;13.20;72.30
29663;DHT22;16578;53.266;7.920;2023-05-24T05:16:41;13.30;72.30
29663;DHT22;16578;53.266;7.920;2023-05-24T05:19:07;13.30;72.20
29663;DHT22;16578;53.266;7.920;2023-05-24T05:21:33;13.40;72.20
29663;DHT22;16578;53.266;7.920;2023-05-24T05:23:59;13.40;72.90
29663;DHT22;16578;53.266;7.920;2023-05-24T05:26:26;13.40;72.00
29663;DHT22;16578;53.266;7.920;2023-05-24T05:28:52;13.50;72.00
29663;DHT22;16578;53.266;7.920;2023-05-24T05:31:19;13.60;72.10
29663;DHT22;16578;53.266;7.920;2023-05-24T05:33:44;13.60;72.10
29663;DHT22;16578;53.266;7.920;2023-05-24T05:36:10;13.70;72.00
29663;DHT22;16578;53.266;7.920;2023-05-24T05:38:36;13.70;71.90
29663;DHT22;16578;53.266;7.920;2023-05-24T05:41:01;13.70;71.80
29663;DHT22;16578;53.266;7.920;2023-05-24T05:43:27;13.70;71.80
29663;DHT22;16578;53.266;7.920;2023-05-24T05:45:53;13.80;71.80
29663;DHT22;16578;53.266;7.920;2023-05-24T05:48:19;13.80;71.70
29663;DHT22;16578;53.266;7.920;2023-05-24T05:50:45;13.90;71.80
29663;DHT22;16578;53.266;7.920;2023-05-24T05:53:11;13.90;71.60
29663;DHT22;16578;53.266;7.920;2023-05-24T05:55:36;14.00;71.50
29663;DHT22;16578;53.266;7.920;2023-05-24T05:58:02;14.00;71.30
29663;DHT22;16578;53.266;7.920;2023-05-24T06:00:27;14.00;71.40
29663;DHT22;16578;53.266;7.920;2023-05-24T06:02:53;14.10;71.40
29663;DHT22;16578;53.266;7.920;2023-05-24T06:05:18;14.10;71.30
29663;DHT22;16578;53.266;7.920;2023-05-24T06:07:44;14.10;71.10
29663;DHT22;16578;53.266;7.920;2023-05-24T06:10:10;14.20;71.10
29663;DHT22;16578;53.266;7.920;2023-05-24T06:12:36;14.20;71.10
29663;DHT22;16578;53.266;7.920;2023-05-24T06:15:03;14.20;71.00
29663;DHT22;16578;53.266;7.920;2023-05-24T06:17:30;14.30;70.90
29663;DHT22;16578;53.266;7.920;2023-05-24T06:19:56;14.30;70.90
29663;DHT22;16578;53.266;7.920;2023-05-24T06:22:21;14.30;70.80
29663;DHT22;16578;53.266;7.920;2023-05-24T06:24:47;14.40;70.60
29663;DHT22;16578;53.266;7.920;2023-05-24T06:27:13;14.40;70.50
29663;DHT22;16578;53.266;7.920;2023-05-24T06:29:39;14.40;70.50
29663;DHT22;16578;53.266;7.920;2023-05-24T06:32:05;14.40;70.40
29663;DHT22;16578;53.266;7.920;2023-05-24T06:34:30;14.40;70.30
29663;DHT22;16578;53.266;7.920;2023-05-24T06:36:56;14.40;70.30
29663;DHT22;16578;53.266;7.920;2023-05-24T06:39:22;14.50;70.30
29663;DHT22;16578;53.266;7.920;2023-05-24T06:41:49;14.50;70.20
29663;DHT22;16578;53.266;7.920;2023-05-24T06:44:16;14.50;70.10
29663;DHT22;16578;53.266;7.920;2023-05-24T06:46:41;14.50;70.10
29663;DHT22;16578;53.266;7.920;2023-05-24T06:49:07;14.50;69.90
29663;DHT22;16578;53.266;7.920;2023-05-24T06:51:33;14.50;69.90
29663;DHT22;16578;53.266;7.920;2023-05-24T06:53:58;14.50;69.80
29663;DHT22;16578;53.266;7.920;2023-05-24T06:56:24;14.50;69.80
29663;DHT22;16578;53.266;7.920;2023-05-24T06:58:51;14.50;69.90
29663;DHT22;16578;53.266;7.920;2023-05-24T07:01:16;14.50;69.70
29663;DHT22;16578;53.266;7.920;2023-05-24T07:03:43;14.60;69.80
29663;DHT22;16578;53.266;7.920;2023-05-24T07:06:08;14.60;69.80
29663;DHT22;16578;53.266;7.920;2023-05-24T07:08:38;14.60;70.60
29663;DHT22;16578;53.266;7.920;2023-05-24T07:11:04;14.60;69.90
29663;DHT22;16578;53.266;7.920;2023-05-24T07:13:30;14.70;69.30
29663;DHT22;16578;53.266;7.920;2023-05-24T07:15:56;14.70;69.30
29663;DHT22;16578;53.266;7.920;2023-05-24T07:18:21;14.70;69.20
29663;DHT22;16578;53.266;7.920;2023-05-24T07:20:47;14.70;69.30
29663;DHT22;16578;53.266;7.920;2023-05-24T07:23:13;14.70;69.40
29663;DHT22;16578;53.266;7.920;2023-05-24T07:25:38;14.80;69.40
29663;DHT22;16578;53.266;7.920;2023-05-24T07:28:04;14.80;69.20
29663;DHT22;16578;53.266;7.920;2023-05-24T07:30:30;14.80;68.80
29663;DHT22;16578;53.266;7.920;2023-05-24T07:32:55;14.80;68.60
29663;DHT22;16578;53.266;7.920;2023-05-24T07:35:21;14.90;68.60
29663;DHT22;16578;53.266;7.920;2023-05-24T07:37:48;14.90;68.40
29663;DHT22;16578;53.266;7.920;2023-05-24T07:40:13;14.90;68.10
29663;DHT22;16578;53.266;7.920;2023-05-24T07:42:39;14.90;68.10
29663;DHT22;16578;53.266;7.920;2023-05-24T07:45:06;14.90;67.90
29663;DHT22;16578;53.266;7.920;2023-05-24T07:47:33;14.90;67.80
29663;DHT22;16578;53.266;7.920;2023-05-24T07:49:59;14.80;67.70
29663;DHT22;16578;53.266;7.920;2023-05-24T07:52:24;14.80;67.50
29663;DHT22;16578;53.266;7.920;2023-05-24T07:54:50;14.80;67.60
29663;DHT22;16578;53.266;7.920;2023-05-24T07:57:18;14.90;67.80
29663;DHT22;16578;53.266;7.920;2023-05-24T07:59:44;14.90;67.90
29663;DHT22;16578;53.266;7.920;2023-05-24T08:02:09;14.90;67.80
29663;DHT22;16578;53.266;7.920;2023-05-24T08:04:36;15.00;68.00
29663;DHT22;16578;53.266;7.920;2023-05-24T08:07:01;15.00;68.00
29663;DHT22;16578;53.266;7.920;2023-05-24T08:09:28;15.10;67.90
29663;DHT22;16578;53.266;7.920;2023-05-24T08:11:55;15.10;67.70
29663;DHT22;16578;53.266;7.920;2023-05-24T08:14:21;15.20;67.50
29663;DHT22;16578;53.266;7.920;2023-05-24T08:16:47;15.20;67.40
29663;DHT22;16578;53.266;7.920;2023-05-24T08:19:13;15.30;67.10
29663;DHT22;16578;53.266;7.920;2023-05-24T08:21:40;15.30;67.00
29663;DHT22;16578;53.266;7.920;2023-05-24T08:24:06;15.30;67.00
29663;DHT22;16578;53.266;7.920;2023-05-24T08:26:32;15.30;67.20
29663;DHT22;16578;53.266;7.920;2023-05-24T08:28:58;15.40;67.40
29663;DHT22;16578;53.266;7.920;2023-05-24T08:31:23;15.40;67.40
29663;DHT22;16578;53.266;7.920;2023-05-24T08:33:49;15.50;67.40
29663;DHT22;16578;53.266;7.920;2023-05-24T08:36:16;15.50;67.20
29663;DHT22;16578;53.266;7.920;2023-05-24T08:38:42;15.60;67.00
29663;DHT22;16578;53.266;7.920;2023-05-24T08:41:09;15.60;66.90
29663;DHT22;16578;53.266;7.920;2023-05-24T08:43:37;15.70;66.80
29663;DHT22;16578;53.266;7.920;2023-05-24T08:46:03;15.70;66.70
29663;DHT22;16578;53.266;7.920;2023-05-24T08:48:30;15.70;66.50
29663;DHT22;16578;53.266;7.920;2023-05-24T08:50:57;15.70;66.40
29663;DHT22;16578;53.266;7.920;2023-05-24T08:53:23;15.80;67.30
29663;DHT22;16578;53.266;7.920;2023-05-24T08:55:49;15.80;66.60
29663;DHT22;16578;53.266;7.920;2023-05-24T08:58:19;15.90;66.80
29663;DHT22;16578;53.266;7.920;2023-05-24T09:00:44;16.00;66.70
29663;DHT22;16578;53.266;7.920;2023-05-24T09:03:11;16.10;66.60
29663;DHT22;16578;53.266;7.920;2023-05-24T09:05:39;16.20;66.30
29663;DHT22;16578;53.266;7.920;2023-05-24T09:08:06;16.30;66.10
29663;DHT22;16578;53.266;7.920;2023-05-24T09:10:32;16.30;65.90
29663;DHT22;16578;53.266;7.920;2023-05-24T09:13:01;16.40;65.90
29663;DHT22;16578;53.266;7.920;2023-05-24T09:15:27;16.50;65.80
29663;DHT22;16578;53.266;7.920;2023-05-24T09:17:52;16.60;65.40
29663;DHT22;16578;53.266;7.920;2023-05-24T09:20:19;16.60;65.00
29663;DHT22;16578;53.266;7.920;2023-05-24T09:22:49;16.70;65.00
29663;DHT22;16578;53.266;7.920;2023-05-24T09:25:17;16.80;64.30
29663;DHT22;16578;53.266;7.920;2023-05-24T09:27:49;16.80;64.20
29663;DHT22;16578;53.266;7.920;2023-05-24T09:30:14;16.90;64.10
29663;DHT22;16578;53.266;7.920;2023-05-24T09:32:42;16.90;64.10
29663;DHT22;16578;53.266;7.920;2023-05-24T09:35:18;17.00;64.40
29663;DHT22;16578;53.266;7.920;2023-05-24T09:37:45;17.00;64.40
29663;DHT22;16578;53.266;7.920;2023-05-24T09:40:18;17.10;64.30
29663;DHT22;16578;53.266;7.920;2023-05-24T09:42:46;17.20;64.10
29663;DHT22;16578;53.266;7.920;2023-05-24T09:45:16;17.20;63.70
29663;DHT22;16578;53.266;7.920;2023-05-24T09:47:42;17.30;63.30
29663;DHT22;16578;53.266;7.920;2023-05-24T09:50:15;17.30;62.90
29663;DHT22;16578;53.266;7.920;2023-05-24T09:52:41;17.30;62.50
29663;DHT22;16578;53.266;7.920;2023-05-24T09:55:26;17.30;62.50
29663;DHT22;16578;53.266;7.920;2023-05-24T09:58:03;17.40;61.80
29663;DHT22;16578;53.266;7.920;2023-05-24T10:00:36;17.40;61.90
29663;DHT22;16578;53.266;7.920;2023-05-24T10:03:05;17.30;62.10
29663;DHT22;16578;53.266;7.920;2023-05-24T10:05:32;17.40;62.10
29663;DHT22;16578;53.266;7.920;2023-05-24T10:07:59;17.30;62.00
29663;DHT22;16578;53.266;7.920;2023-05-24T10:10:30;17.40;61.90
29663;DHT22;16578;53.266;7.920;2023-05-24T10:12:56;17.40;61.80
29663;DHT22;16578;53.266;7.920;2023-05-24T10:15:22;17.40;61.80
29663;DHT22;16578;53.266;7.920;2023-05-24T10:17:50;17.40;61.30
29663;DHT22;16578;53.266;7.920;2023-05-24T10:20:15;17.40;61.20
29663;DHT22;16578;53.266;7.920;2023-05-24T10:22:44;17.50;61.20
29663;DHT22;16578;53.266;7.920;2023-05-24T10:25:14;17.40;60.90
29663;DHT22;16578;53.266;7.920;2023-05-24T10:27:43;17.50;61.10
29663;DHT22;16578;53.266;7.920;2023-05-24T10:30:14;17.40;61.20
29663;DHT22;16578;53.266;7.920;2023-05-24T10:32:41;17.50;61.10
29663;DHT22;16578;53.266;7.920;2023-05-24T10:35:08;17.50;61.10
29663;DHT22;16578;53.266;7.920;2023-05-24T10:37:36;17.50;61.00
29663;DHT22;16578;53.266;7.920;2023-05-24T10:40:04;17.50;61.10
29663;DHT22;16578;53.266;7.920;2023-05-24T10:42:34;17.50;60.70
29663;DHT22;16578;53.266;7.920;2023-05-24T10:47:50;17.60;60.40
29663;DHT22;16578;53.266;7.920;2023-05-24T10:50:20;17.60;60.80
29663;DHT22;16578;53.266;7.920;2023-05-24T10:52:48;17.70;60.60
29663;DHT22;16578;53.266;7.920;2023-05-24T10:55:14;17.60;60.40
29663;DHT22;16578;53.266;7.920;2023-05-24T10:57:40;17.60;60.50
29663;DHT22;16578;53.266;7.920;2023-05-24T11:03:01;17.80;59.90
29663;DHT22;16578;53.266;7.920;2023-05-24T11:08:10;17.70;60.00
29663;DHT22;16578;53.266;7.920;2023-05-24T11:10:36;17.70;60.20
29663;DHT22;16578;53.266;7.920;2023-05-24T11:13:03;17.70;60.10
29663;DHT22;16578;53.266;7.920;2023-05-24T11:15:31;17.70;59.80
29663;DHT22;16578;53.266;7.920;2023-05-24T11:20:34;17.70;59.70
29663;DHT22;16578;53.266;7.920;2023-05-24T11:23:02;17.70;60.20
29663;DHT22;16578;53.266;7.920;2023-05-24T11:25:28;17.70;60.20
29663;DHT22;16578;53.266;7.920;2023-05-24T11:27:56;17.70;60.10
29663;DHT22;16578;53.266;7.920;2023-05-24T11:30:22;17.70;60.20
29663;DHT22;16578;53.266;7.920;2023-05-24T11:32:48;17.60;60.60
29663;DHT22;16578;53.266;7.920;2023-05-24T11:35:14;17.70;60.80
29663;DHT22;16578;53.266;7.920;2023-05-24T11:37:40;17.70;60.50
29663;DHT22;16578;53.266;7.920;2023-05-24T11:40:07;17.70;60.50
29663;DHT22;16578;53.266;7.920;2023-05-24T11:42:34;17.70;60.40
29663;DHT22;16578;53.266;7.920;2023-05-24T11:45:02;17.60;60.40
29663;DHT22;16578;53.266;7.920;2023-05-24T11:47:29;17.60;60.50
29663;DHT22;16578;53.266;7.920;2023-05-24T11:49:54;17.60;60.40
29663;DHT22;16578;53.266;7.920;2023-05-24T11:52:20;17.60;60.30
29663;DHT22;16578;53.266;7.920;2023-05-24T11:54:49;17.70;60.70
29663;DHT22;16578;53.266;7.920;2023-05-24T11:57:17;17.70;60.50
29663;DHT22;16578;53.266;7.920;2023-05-24T11:59:43;17.70;60.40
29663;DHT22;16578;53.266;7.920;2023-05-24T12:02:09;17.70;60.40
29663;DHT22;16578;53.266;7.920;2023-05-24T12:04:34;17.70;60.40
29663;DHT22;16578;53.266;7.920;2023-05-24T12:07:01;17.70;60.50
29663;DHT22;16578;53.266;7.920;2023-05-24T12:09:27;17.70;60.40
29663;DHT22;16578;53.266;7.920;2023-05-24T12:11:53;17.70;60.30
29663;DHT22;16578;53.266;7.920;2023-05-24T12:14:24;17.60;60.40
29663;DHT22;16578;53.266;7.920;2023-05-24T12:16:53;17.60;60.60
29663;DHT22;16578;53.266;7.920;2023-05-24T12:19:23;17.60;60.70
29663;DHT22;16578;53.266;7.920;2023-05-24T12:21:56;17.60;60.80
29663;DHT22;16578;53.266;7.920;2023-05-24T12:24:23;17.70;60.80
29663;DHT22;16578;53.266;7.920;2023-05-24T12:26:49;17.70;60.60
29663;DHT22;16578;53.266;7.920;2023-05-24T12:29:15;17.80;60.20
29663;DHT22;16578;53.266;7.920;2023-05-24T12:31:44;17.80;60.10
29663;DHT22;16578;53.266;7.920;2023-05-24T12:34:15;17.80;60.00
29663;DHT22;16578;53.266;7.920;2023-05-24T12:36:41;17.90;59.70
29663;DHT22;16578;53.266;7.920;2023-05-24T12:39:21;17.90;59.50
29663;DHT22;16578;53.266;7.920;2023-05-24T12:41:51;18.00;59.60
29663;DHT22;16578;53.266;7.920;2023-05-24T12:44:29;18.00;59.60
29663;DHT22;16578;53.266;7.920;2023-05-24T12:46:56;18.00;59.50
29663;DHT22;16578;53.266;7.920;2023-05-24T12:49:23;18.00;59.70
29663;DHT22;16578;53.266;7.920;2023-05-24T12:51:49;18.00;59.70
29663;DHT22;16578;53.266;7.920;2023-05-24T12:54:18;18.00;59.70
29663;DHT22;16578;53.266;7.920;2023-05-24T12:56:44;18.00;60.00
29663;DHT22;16578;53.266;7.920;2023-05-24T12:59:09;18.00;60.30
29663;DHT22;16578;53.266;7.920;2023-05-24T13:01:35;18.00;60.30
29663;DHT22;16578;53.266;7.920;2023-05-24T13:04:01;18.10;59.80
29663;DHT22;16578;53.266;7.920;2023-05-24T13:06:26;18.10;59.80
29663;DHT22;16578;53.266;7.920;2023-05-24T13:08:52;18.20;59.80
29663;DHT22;16578;53.266;7.920;2023-05-24T13:11:18;18.20;59.80
29663;DHT22;16578;53.266;7.920;2023-05-24T13:13:43;18.30;59.60
29663;DHT22;16578;53.266;7.920;2023-05-24T13:16:10;18.30;59.50
29663;DHT22;16578;53.266;7.920;2023-05-24T13:18:36;18.40;59.30
29663;DHT22;16578;53.266;7.920;2023-05-24T13:21:02;18.40;59.10
29663;DHT22;16578;53.266;7.920;2023-05-24T13:23:33;18.40;58.90
29663;DHT22;16578;53.266;7.920;2023-05-24T13:26:03;18.40;58.80
29663;DHT22;16578;53.266;7.920;2023-05-24T13:28:29;18.30;58.90
29663;DHT22;16578;53.266;7.920;2023-05-24T13:30:55;18.30;58.90
29663;DHT22;16578;53.266;7.920;2023-05-24T13:33:20;18.40;58.90
29663;DHT22;16578;53.266;7.920;2023-05-24T13:35:46;18.40;58.90
29663;DHT22;16578;53.266;7.920;2023-05-24T13:38:11;18.40;58.80
29663;DHT22;16578;53.266;7.920;2023-05-24T13:40:38;18.40;58.80
29663;DHT22;16578;53.266;7.920;2023-05-24T13:43:04;18.40;58.60
29663;DHT22;16578;53.266;7.920;2023-05-24T13:45:30;18.40;58.50
29663;DHT22;16578;53.266;7.920;2023-05-24T13:47:58;18.40;58.50
29663;DHT22;16578;53.266;7.920;2023-05-24T13:50:29;18.30;58.50
29663;DHT22;16578;53.266;7.920;2023-05-24T13:52:57;18.30;58.60
29663;DHT22;16578;53.266;7.920;2023-05-24T13:55:22;18.30;58.60
29663;DHT22;16578;53.266;7.920;2023-05-24T13:57:48;18.30;58.60
29663;DHT22;16578;53.266;7.920;2023-05-24T14:00:14;18.20;58.50
29663;DHT22;16578;53.266;7.920;2023-05-24T14:02:39;18.20;58.70
29663;DHT22;16578;53.266;7.920;2023-05-24T14:05:05;18.20;58.60
29663;DHT22;16578;53.266;7.920;2023-05-24T14:07:31;18.20;58.60
29663;DHT22;16578;53.266;7.920;2023-05-24T14:09:57;18.10;58.70
29663;DHT22;16578;53.266;7.920;2023-05-24T14:12:22;18.10;58.70
29663;DHT22;16578;53.266;7.920;2023-05-24T14:14:48;18.10;58.80
29663;DHT22;16578;53.266;7.920;2023-05-24T14:17:14;18.00;59.10
29663;DHT22;16578;53.266;7.920;2023-05-24T14:19:39;18.00;59.40
29663;DHT22;16578;53.266;7.920;2023-05-24T14:22:05;18.00;59.50
29663;DHT22;16578;53.266;7.920;2023-05-24T14:24:31;17.90;59.60
29663;DHT22;16578;53.266;7.920;2023-05-24T14:26:57;17.90;59.50
29663;DHT22;16578;53.266;7.920;2023-05-24T14:29:22;17.80;59.40
29663;DHT22;16578;53.266;7.920;2023-05-24T14:31:48;17.80;59.50
29663;DHT22;16578;53.266;7.920;2023-05-24T14:34:13;17.70;59.50
29663;DHT22;16578;53.266;7.920;2023-05-24T14:36:39;17.60;59.60
29663;DHT22;16578;53.266;7.920;2023-05-24T14:39:06;17.60;59.90
29663;DHT22;16578;53.266;7.920;2023-05-24T14:41:33;17.60;60.10
29663;DHT22;16578;53.266;7.920;2023-05-24T14:43:59;17.60;60.20
29663;DHT22;16578;53.266;7.920;2023-05-24T14:46:24;17.50;60.00
29663;DHT22;16578;53.266;7.920;2023-05-24T14:48:50;17.50;59.90
29663;DHT22;16578;53.266;7.920;2023-05-24T14:51:16;17.50;60.00
29663;DHT22;16578;53.266;7.920;2023-05-24T14:53:42;17.50;60.20
29663;DHT22;16578;53.266;7.920;2023-05-24T14:56:07;17.50;60.20
29663;DHT22;16578;53.266;7.920;2023-05-24T14:58:34;17.50;60.40
29663;DHT22;16578;53.266;7.920;2023-05-24T15:01:00;17.50;60.50
29663;DHT22;16578;53.266;7.920;2023-05-24T15:03:26;17.50;60.10
29663;DHT22;16578;53.266;7.920;2023-05-24T15:05:51;17.40;60.10
29663;DHT22;16578;53.266;7.920;2023-05-24T15:08:17;17.40;60.20
29663;DHT22;16578;53.266;7.920;2023-05-24T15:10:42;17.40;60.40
29663;DHT22;16578;53.266;7.920;2023-05-24T15:13:11;17.40;60.40
29663;DHT22;16578;53.266;7.920;2023-05-24T15:15:37;17.30;60.50
29663;DHT22;16578;53.266;7.920;2023-05-24T15:18:03;17.30;60.50
29663;DHT22;16578;53.266;7.920;2023-05-24T15:20:28;17.30;60.60
29663;DHT22;16578;53.266;7.920;2023-05-24T15:22:54;17.30;60.60
29663;DHT22;16578;53.266;7.920;2023-05-24T15:25:20;17.30;60.70
29663;DHT22;16578;53.266;7.920;2023-05-24T15:27:45;17.30;60.80
29663;DHT22;16578;53.266;7.920;2023-05-24T15:30:12;17.30;60.90
29663;DHT22;16578;53.266;7.920;2023-05-24T15:32:37;17.30;60.90
29663;DHT22;16578;53.266;7.920;2023-05-24T15:35:03;17.30;60.80
29663;DHT22;16578;53.266;7.920;2023-05-24T15:37:29;17.30;60.80
29663;DHT22;16578;53.266;7.920;2023-05-24T15:39:54;17.20;60.90
29663;DHT22;16578;53.266;7.920;2023-05-24T15:42:20;17.20;61.00
29663;DHT22;16578;53.266;7.920;2023-05-24T15:44:49;17.20;61.10
29663;DHT22;16578;53.266;7.920;2023-05-24T15:47:15;17.30;61.40
29663;DHT22;16578;53.266;7.920;2023-05-24T15:49:41;17.20;61.50